createdAt,value
2019-01-31T00:00:18.510Z,14.5
2019-01-31T00:02:19.141Z,14.8
2019-01-31T00:04:18.779Z,14.2
2019-01-31T00:06:19.062Z,15.2
2019-01-31T00:08:18.690Z,13.1
2019-01-31T00:10:18.906Z,15.2
2019-01-31T00:12:18.533Z,14.5
2019-01-31T00:14:19.269Z,12.3
2019-01-31T00:16:18.983Z,13.3
2019-01-31T00:18:18.699Z,14.5
2019-01-31T00:20:19.330Z,14.6
2019-01-31T00:22:18.971Z,13.6
2019-01-31T00:24:18.620Z,12.3
2019-01-31T00:26:18.948Z,16
2019-01-31T00:28:18.535Z,13
2019-01-31T00:30:19.184Z,13.4
2019-01-31T00:32:18.793Z,14.2
2019-01-31T00:34:18.437Z,14
2019-01-31T00:36:19.201Z,15.1
2019-01-31T00:38:18.807Z,13.7
2019-01-31T00:40:18.897Z,14.6
2019-01-31T00:42:18.523Z,13.2
2019-01-31T00:44:19.147Z,13.9
2019-01-31T00:46:19.418Z,13.9
2019-01-31T00:48:19.023Z,14.1
2019-01-31T00:50:18.645Z,13.1
2019-01-31T00:52:19.274Z,13.1
2019-01-31T00:54:18.909Z,14.3
2019-01-31T00:56:18.869Z,13.3
2019-01-31T00:58:18.496Z,14
2019-01-31T01:00:19.138Z,14.2
2019-01-31T01:02:18.604Z,15.6
2019-01-31T01:04:19.209Z,13.4
2019-01-31T01:06:18.539Z,13.3
2019-01-31T01:08:19.151Z,16.3
2019-01-31T01:10:19.270Z,13.8
2019-01-31T01:12:18.869Z,11.9
2019-01-31T01:14:18.475Z,13.6
2019-01-31T01:16:18.815Z,14.2
2019-01-31T01:18:18.518Z,14.2
2019-01-31T01:20:19.162Z,15
2019-01-31T01:22:18.882Z,12.1
2019-01-31T01:24:18.507Z,12.7
2019-01-31T01:26:18.761Z,13.9
2019-01-31T01:28:19.378Z,13.9
2019-01-31T01:30:18.994Z,14.9
2019-01-31T01:32:18.631Z,14.3
2019-01-31T01:34:19.235Z,13.5
2019-01-31T01:36:18.565Z,13
2019-01-31T01:38:19.192Z,13.2
2019-01-31T01:40:19.279Z,12.4
2019-01-31T01:42:18.912Z,12.4
2019-01-31T01:44:18.559Z,13.6
2019-01-31T01:46:18.857Z,12.5
2019-01-31T01:48:18.567Z,12.2
2019-01-31T01:50:19.284Z,12.6
2019-01-31T01:52:18.924Z,13.2
2019-01-31T01:54:18.554Z,12.5
2019-01-31T01:56:18.550Z,12.6
2019-01-31T01:58:19.195Z,12.5
2019-01-31T02:00:18.877Z,13.7
2019-01-31T02:02:18.902Z,12.7
2019-01-31T02:04:18.549Z,14
2019-01-31T02:06:18.759Z,11.3
2019-01-31T02:08:19.384Z,14.3
2019-01-31T02:10:18.471Z,12.7
2019-01-31T02:12:19.120Z,11
2019-01-31T02:14:18.723Z,11.5
2019-01-31T02:16:18.543Z,12.8
2019-01-31T02:18:19.253Z,14.4
2019-01-31T02:20:18.923Z,12.8
2019-01-31T02:22:18.534Z,12.4
2019-01-31T02:24:19.169Z,12
2019-01-31T02:26:18.939Z,11.9
2019-01-31T02:28:18.575Z,12.8
2019-01-31T02:30:19.220Z,12.3
2019-01-31T02:32:18.823Z,12.3
2019-01-31T02:34:18.418Z,13.5
2019-01-31T02:36:19.077Z,12.7
2019-01-31T02:38:18.878Z,12
2019-01-31T02:40:18.976Z,13.1
2019-01-31T02:42:18.604Z,11.7
2019-01-31T02:44:19.210Z,12.9
2019-01-31T02:46:18.994Z,12
2019-01-31T02:48:18.615Z,12.1
2019-01-31T02:50:19.261Z,12.4
2019-01-31T02:52:18.895Z,12.2
2019-01-31T02:54:18.525Z,13
2019-01-31T02:56:18.831Z,11.7
2019-01-31T02:58:18.491Z,11.8
2019-01-31T03:00:19.156Z,13.6
2019-01-31T03:02:18.791Z,12.1
2019-01-31T03:04:19.411Z,13.7
2019-01-31T03:06:18.672Z,11.4
2019-01-31T03:08:19.284Z,11.7
2019-01-31T03:10:19.624Z,11.1
2019-01-31T03:12:19.295Z,12.2
2019-01-31T03:14:18.926Z,11.3
2019-01-31T03:16:19.199Z,12.8
2019-01-31T03:18:18.906Z,13.2
2019-01-31T03:20:18.534Z,12.3
2019-01-31T03:22:19.168Z,12.7
2019-01-31T03:24:18.783Z,12.3
2019-01-31T03:26:18.463Z,11.9
2019-01-31T03:28:19.141Z,12.6
2019-01-31T03:30:18.787Z,12.4
2019-01-31T03:32:18.613Z,11.8
2019-01-31T03:34:19.240Z,10.7
2019-01-31T03:36:18.925Z,11.5
2019-01-31T03:38:18.553Z,12.5
2019-01-31T03:40:18.656Z,11.1
2019-01-31T03:42:19.289Z,11.8
2019-01-31T03:44:18.953Z,12.1
2019-01-31T03:46:19.312Z,11.8
2019-01-31T03:48:18.923Z,11.2
2019-01-31T03:50:18.548Z,12.6
2019-01-31T03:52:19.170Z,10.9
2019-01-31T03:54:18.802Z,11.5
2019-01-31T03:56:19.116Z,10.7
2019-01-31T03:58:18.745Z,13.2
2019-01-31T04:00:19.486Z,12.2
2019-01-31T04:02:19.152Z,10.7
2019-01-31T04:04:18.769Z,11.4
2019-01-31T04:06:18.690Z,11.4
2019-01-31T04:08:19.339Z,11.6
2019-01-31T04:10:19.305Z,11.1
2019-01-31T04:12:19.032Z,11.1
2019-01-31T04:14:18.671Z,11
2019-01-31T04:16:18.494Z,11.9
2019-01-31T04:18:19.241Z,11.3
2019-01-31T04:20:18.882Z,10.5
2019-01-31T04:22:19.262Z,12.1
2019-01-31T04:24:18.888Z,10.9
2019-01-31T04:26:19.184Z,11
2019-01-31T04:28:18.817Z,11.8
2019-01-31T04:30:18.502Z,12.1
2019-01-31T04:32:19.136Z,11.2
2019-01-31T04:34:18.763Z,11.8
2019-01-31T04:36:18.556Z,11.5
2019-01-31T04:38:19.832Z,10.6
2019-01-31T04:40:30.333Z,11.2
2019-01-31T04:42:19.359Z,11.7
2019-01-31T04:44:19.014Z,11.4
2019-01-31T04:46:19.317Z,11.3
2019-01-31T04:48:18.935Z,9.9
2019-01-31T04:50:18.574Z,11.1
2019-01-31T04:52:19.195Z,11.1
2019-01-31T04:54:18.858Z,10.2
2019-01-31T04:56:18.674Z,10.9
2019-01-31T04:58:19.304Z,9.2
2019-01-31T05:00:18.970Z,11
2019-01-31T05:02:18.596Z,10.6
2019-01-31T05:04:19.240Z,9.8
2019-01-31T05:06:18.480Z,10.7
2019-01-31T05:08:19.105Z,11
2019-01-31T05:10:19.249Z,10.4
2019-01-31T05:12:18.903Z,11.3
2019-01-31T05:14:18.555Z,11.2
2019-01-31T05:16:18.905Z,10.1
2019-01-31T05:18:18.622Z,10.3
2019-01-31T05:20:19.266Z,11.3
2019-01-31T05:22:19.178Z,10.7
2019-01-31T05:24:18.829Z,11.1
2019-01-31T05:26:18.760Z,9.6
2019-01-31T05:28:19.360Z,10.8
2019-01-31T05:30:19.030Z,9.6
2019-01-31T05:32:18.712Z,11.1
2019-01-31T05:34:19.382Z,8.8
2019-01-31T05:36:18.747Z,10.4
2019-01-31T05:38:19.455Z,9.7
2019-01-31T05:40:18.629Z,9.6
2019-01-31T05:42:19.263Z,9.6
2019-01-31T05:44:19.000Z,9.5
2019-01-31T05:46:19.423Z,9
2019-01-31T05:48:19.081Z,8.4
2019-01-31T05:50:18.910Z,10.3
2019-01-31T05:52:18.585Z,10.9
2019-01-31T05:54:19.209Z,9.3
2019-01-31T05:56:18.583Z,11.1
2019-01-31T05:58:19.242Z,10
2019-01-31T06:00:18.948Z,10.4
2019-01-31T06:02:18.583Z,9.5
2019-01-31T06:04:19.239Z,8.8
2019-01-31T06:06:18.996Z,10.1
2019-01-31T06:08:18.593Z,9.2
2019-01-31T06:10:18.671Z,9.2
2019-01-31T06:12:19.332Z,9.5
2019-01-31T06:14:18.947Z,9.2
2019-01-31T06:16:18.444Z,9.6
2019-01-31T06:18:19.265Z,9.7
2019-01-31T06:20:18.926Z,8.7
2019-01-31T06:22:18.540Z,7.6
2019-01-31T06:24:19.284Z,9.1
2019-01-31T06:26:18.625Z,9.5
2019-01-31T06:28:19.276Z,8.2
2019-01-31T06:30:18.921Z,9.1
2019-01-31T06:32:18.560Z,10.9
2019-01-31T06:34:19.173Z,9.4
2019-01-31T06:36:18.469Z,9.3
2019-01-31T06:38:19.115Z,8.2
2019-01-31T06:40:19.218Z,8.8
2019-01-31T06:42:18.647Z,8.8
2019-01-31T06:44:19.302Z,8.8
2019-01-31T06:46:19.188Z,9.1
2019-01-31T06:48:18.787Z,8.3
2019-01-31T06:50:18.441Z,8.4
2019-01-31T06:52:19.083Z,8.4
2019-01-31T06:54:18.703Z,8.1
2019-01-31T06:56:19.060Z,7.5
2019-01-31T06:58:18.672Z,8.6
2019-01-31T07:00:19.290Z,7.8
2019-01-31T07:02:18.978Z,8.1
2019-01-31T07:04:18.636Z,9.6
2019-01-31T07:06:19.405Z,8.3
2019-01-31T07:08:19.045Z,6.6
2019-01-31T07:10:19.271Z,7.7
2019-01-31T07:12:18.904Z,8.4
2019-01-31T07:14:18.535Z,7.9
2019-01-31T07:16:19.037Z,9.6
2019-01-31T07:18:18.703Z,12.9
2019-01-31T07:20:19.354Z,13.5
2019-01-31T07:22:19.086Z,19.6
2019-01-31T07:24:18.686Z,19.3
2019-01-31T07:26:18.963Z,22.3
2019-01-31T07:28:18.570Z,21.8
2019-01-31T07:30:19.193Z,24.2
2019-01-31T07:32:18.848Z,26
2019-01-31T07:34:18.496Z,29.4
2019-01-31T07:36:18.871Z,29.1
2019-01-31T07:38:18.505Z,28.6
2019-01-31T07:40:18.693Z,29.4
2019-01-31T07:42:19.330Z,22.3
2019-01-31T07:44:18.963Z,15.7
2019-01-31T07:46:19.238Z,15.1
2019-01-31T07:48:18.866Z,14.7
2019-01-31T07:50:18.486Z,13
2019-01-31T07:52:19.115Z,13.9
2019-01-31T07:54:18.751Z,12.8
2019-01-31T07:56:18.589Z,13.6
2019-01-31T07:58:20.564Z,11.1
2019-01-31T08:00:19.333Z,10.1
2019-01-31T08:02:18.945Z,9.2
2019-01-31T08:04:18.589Z,8.9
2019-01-31T08:06:18.935Z,9
2019-01-31T08:08:18.573Z,8.6
2019-01-31T08:10:18.658Z,8.5
2019-01-31T08:12:19.301Z,9.3
2019-01-31T08:14:18.935Z,7.4
2019-01-31T08:16:19.178Z,6.9
2019-01-31T08:18:18.901Z,6.7
2019-01-31T08:20:18.513Z,6.8
2019-01-31T08:22:19.111Z,6.6
2019-01-31T08:24:18.759Z,6
2019-01-31T08:26:18.519Z,8.2
2019-01-31T08:28:19.109Z,5.6
2019-01-31T08:30:18.740Z,6.2
2019-01-31T08:32:19.360Z,6.4
2019-01-31T08:34:18.991Z,7
2019-01-31T08:36:19.279Z,7.3
2019-01-31T08:38:18.883Z,5.5
2019-01-31T08:40:18.982Z,5.5
2019-01-31T08:42:18.634Z,6.4
2019-01-31T08:44:19.266Z,5.8
2019-01-31T08:46:19.158Z,7.3
2019-01-31T08:48:18.773Z,7.1
2019-01-31T08:50:19.394Z,6.1
2019-01-31T08:52:19.014Z,5.7
2019-01-31T08:54:18.634Z,5.8
2019-01-31T08:56:19.299Z,6.5
2019-01-31T08:58:18.915Z,5.8
2019-01-31T09:00:18.545Z,6.4
2019-01-31T09:02:19.185Z,6.5
2019-01-31T09:04:18.808Z,6
2019-01-31T09:06:19.062Z,5.5
2019-01-31T09:08:18.789Z,6.8
2019-01-31T09:10:18.949Z,5.6
2019-01-31T09:12:18.593Z,7.3
2019-01-31T09:14:19.227Z,6.8
2019-01-31T09:16:18.581Z,5.9
2019-01-31T09:18:19.297Z,6.2
2019-01-31T09:20:19.021Z,6
2019-01-31T09:22:18.646Z,5.6
2019-01-31T09:24:19.296Z,5.6
2019-01-31T09:26:19.219Z,4.5
2019-01-31T09:28:18.845Z,6.8
2019-01-31T09:30:19.461Z,6.1
2019-01-31T09:32:19.282Z,5.7
2019-01-31T09:34:18.902Z,5.4
2019-01-31T09:36:19.222Z,5.4
2019-01-31T09:38:18.840Z,5.9
2019-01-31T09:40:18.942Z,5.3
2019-01-31T09:42:26.232Z,5.5
2019-01-31T09:44:18.521Z,5.3
2019-01-31T09:46:18.835Z,5.7
2019-01-31T09:48:18.501Z,4.7
2019-01-31T09:50:19.127Z,5
2019-01-31T09:52:18.779Z,4.9
2019-01-31T09:54:19.459Z,4.3
2019-01-31T09:56:19.222Z,5.1
2019-01-31T09:58:18.861Z,4.4
2019-01-31T10:00:26.993Z,4.2
2019-01-31T10:02:18.494Z,3.5
2019-01-31T10:04:19.100Z,4.4
2019-01-31T10:06:19.370Z,4.6
2019-01-31T10:08:19.016Z,4.2
2019-01-31T10:10:19.342Z,4.5
2019-01-31T10:12:19.177Z,4.6
2019-01-31T10:14:18.861Z,4.1
2019-01-31T10:16:18.721Z,4.2
2019-01-31T10:18:18.439Z,4
2019-01-31T10:20:20.323Z,3.5
2019-01-31T10:22:19.418Z,3.7
2019-01-31T10:24:19.220Z,3.5
2019-01-31T10:26:18.591Z,3.8
2019-01-31T10:28:19.234Z,4.4
2019-01-31T10:30:18.881Z,4
2019-01-31T10:32:18.539Z,5.1
2019-01-31T10:34:19.171Z,4.2
2019-01-31T10:36:19.098Z,4.1
2019-01-31T10:38:18.744Z,3.4
2019-01-31T10:40:18.824Z,2.9
2019-01-31T10:42:18.500Z,4.1
2019-01-31T10:44:19.170Z,3.3
2019-01-31T10:46:18.523Z,3.6
2019-01-31T10:48:19.192Z,2.8
2019-01-31T10:50:18.857Z,3.4
2019-01-31T10:52:18.468Z,3.2
2019-01-31T10:54:19.136Z,4.2
2019-01-31T10:56:18.931Z,3.4
2019-01-31T10:58:18.556Z,2.9
2019-01-31T11:00:19.211Z,3.5
2019-01-31T11:02:18.854Z,2.8
2019-01-31T11:04:18.470Z,3.4
2019-01-31T11:06:18.906Z,3.1
2019-01-31T11:08:18.579Z,2.9
2019-01-31T11:10:18.764Z,3
2019-01-31T11:12:19.397Z,3.1
2019-01-31T11:14:19.041Z,3.4
2019-01-31T11:16:18.877Z,2.8
2019-01-31T11:18:18.625Z,3.2
2019-01-31T11:20:19.290Z,3.5
2019-01-31T11:22:18.953Z,3.6
2019-01-31T11:24:18.596Z,2.9
2019-01-31T11:26:18.527Z,2.9
2019-01-31T11:28:19.217Z,3.4
2019-01-31T11:30:18.877Z,3.2
2019-01-31T11:32:18.452Z,2.7
2019-01-31T11:34:19.105Z,2.6
2019-01-31T11:36:18.592Z,3.1
2019-01-31T11:38:19.245Z,2.7
2019-01-31T11:40:19.423Z,2.7
2019-01-31T11:42:19.086Z,2.5
2019-01-31T11:44:18.711Z,2.7
2019-01-31T11:46:18.893Z,2.7
2019-01-31T11:48:18.536Z,2.2
2019-01-31T11:50:19.177Z,1.9
2019-01-31T11:52:18.829Z,3.1
2019-01-31T11:54:18.492Z,2.3
2019-01-31T11:56:19.423Z,2.8
2019-01-31T11:58:19.081Z,2.7
2019-01-31T12:00:18.721Z,2.6
2019-01-31T12:02:19.354Z,2
2019-01-31T12:04:18.985Z,2.7
2019-01-31T12:06:18.759Z,2.6
2019-01-31T12:08:19.395Z,2.4
2019-01-31T12:10:18.556Z,2.6
2019-01-31T12:12:19.183Z,2.2
2019-01-31T12:14:18.820Z,2.2
2019-01-31T12:16:19.115Z,2.8
2019-01-31T12:18:18.816Z,3.1
2019-01-31T12:20:18.479Z,2.1
2019-01-31T12:22:19.117Z,2.7
2019-01-31T12:24:18.738Z,1.7
2019-01-31T12:26:19.212Z,2.1
2019-01-31T12:28:18.882Z,2.2
2019-01-31T12:30:18.550Z,2.7
2019-01-31T12:32:19.165Z,2.1
2019-01-31T12:34:18.840Z,2.5
2019-01-31T12:36:18.628Z,2.7
2019-01-31T12:38:19.256Z,2.5
2019-01-31T12:40:19.393Z,1.9
2019-01-31T12:42:19.017Z,1.9
2019-01-31T12:44:18.648Z,2.1
2019-01-31T12:46:18.901Z,2
2019-01-31T12:48:18.532Z,2.4
2019-01-31T12:50:19.208Z,2.8
2019-01-31T12:52:18.841Z,2.2
2019-01-31T12:54:18.457Z,2.8
2019-01-31T12:56:18.643Z,2.1
2019-01-31T12:58:19.263Z,2.9
2019-01-31T13:00:18.910Z,2.1
2019-01-31T13:02:18.517Z,2.5
2019-01-31T13:04:20.547Z,2.6
2019-01-31T13:06:18.721Z,2
2019-01-31T13:08:19.333Z,1.9
2019-01-31T13:10:19.396Z,1.7
2019-01-31T13:12:19.023Z,2.2
2019-01-31T13:14:18.643Z,2.1
2019-01-31T13:16:18.855Z,2
2019-01-31T13:18:18.516Z,1.9
2019-01-31T13:20:19.141Z,2
2019-01-31T13:22:18.777Z,2.3
2019-01-31T13:24:19.399Z,1.6
2019-01-31T13:26:18.682Z,1.9
2019-01-31T13:28:19.330Z,1.8
2019-01-31T13:30:18.964Z,1.5
2019-01-31T13:32:18.571Z,2.2
2019-01-31T13:34:19.205Z,2.5
2019-01-31T13:36:18.552Z,1.9
2019-01-31T13:38:19.171Z,1.9
2019-01-31T13:40:19.235Z,1.9
2019-01-31T13:42:18.830Z,1.7
2019-01-31T13:44:18.441Z,1.5
2019-01-31T13:46:19.193Z,1.6
2019-01-31T13:48:18.797Z,0.7
2019-01-31T13:50:19.424Z,1.1
2019-01-31T13:52:19.080Z,1.2
2019-01-31T13:54:18.717Z,1.2
2019-01-31T13:56:18.447Z,1
2019-01-31T13:58:19.079Z,1.4
2019-01-31T14:00:18.707Z,1.3
2019-01-31T14:02:19.316Z,0.8
2019-01-31T14:04:18.940Z,1.3
2019-01-31T14:06:18.786Z,0.8
2019-01-31T14:08:19.393Z,1.1
2019-01-31T14:10:18.465Z,1.1
2019-01-31T14:12:19.069Z,1.4
2019-01-31T14:14:18.680Z,1.4
2019-01-31T14:16:18.441Z,1.2
2019-01-31T14:18:19.118Z,0.9
2019-01-31T14:20:18.768Z,1.2
2019-01-31T14:22:19.389Z,1.2
2019-01-31T14:24:18.990Z,0.9
2019-01-31T14:26:18.747Z,0.6
2019-01-31T14:28:19.348Z,1.5
2019-01-31T14:30:21.456Z,1.2
2019-01-31T14:32:19.287Z,0.7
2019-01-31T14:34:18.937Z,1.1
2019-01-31T14:36:18.645Z,1.1
2019-01-31T14:38:19.269Z,1
2019-01-31T14:40:19.339Z,1.1
2019-01-31T14:42:18.933Z,1.3
2019-01-31T14:44:20.320Z,0.9
2019-01-31T14:46:19.009Z,1.4
2019-01-31T14:48:18.648Z,1.5
2019-01-31T14:50:19.258Z,1
2019-01-31T14:52:18.863Z,1.2
2019-01-31T14:54:18.470Z,0.9
2019-01-31T14:56:19.387Z,1.2
2019-01-31T14:58:19.990Z,1.3
2019-01-31T15:00:18.812Z,1.3
2019-01-31T15:02:18.444Z,1
2019-01-31T15:04:19.059Z,1.3
2019-01-31T15:06:19.298Z,1.1
2019-01-31T15:08:18.985Z,1.8
2019-01-31T15:10:19.073Z,1.4
2019-01-31T15:12:18.725Z,1
2019-01-31T15:14:19.350Z,1.7
2019-01-31T15:16:18.601Z,1.1
2019-01-31T15:18:19.272Z,2
2019-01-31T15:20:18.915Z,1.5
2019-01-31T15:22:18.523Z,1.4
2019-01-31T15:24:19.140Z,1.6
2019-01-31T15:26:18.419Z,1.9
2019-01-31T15:28:19.032Z,1.5
2019-01-31T15:30:18.699Z,1.3
2019-01-31T15:32:19.315Z,1.9
2019-01-31T15:34:18.910Z,1.8
2019-01-31T15:36:18.635Z,1.6
2019-01-31T15:38:19.248Z,1.4
2019-01-31T15:40:19.299Z,1.8
2019-01-31T15:42:18.931Z,1.7
2019-01-31T15:44:18.661Z,2.2
2019-01-31T15:46:18.873Z,1.9
2019-01-31T15:48:18.527Z,1.9
2019-01-31T15:50:19.158Z,2.6
2019-01-31T15:52:18.745Z,1.7
2019-01-31T15:54:19.357Z,1.7
2019-01-31T15:56:18.496Z,2.9
2019-01-31T15:58:19.081Z,2.2
2019-01-31T16:00:18.828Z,2.1
2019-01-31T16:02:18.414Z,1.9
2019-01-31T16:04:18.989Z,2.3
2019-01-31T16:06:19.121Z,2.3
2019-01-31T16:08:18.721Z,2.5
2019-01-31T16:10:18.805Z,2
2019-01-31T16:12:18.421Z,1.9
2019-01-31T16:14:19.148Z,2.5
2019-01-31T16:16:20.080Z,2.2
2019-01-31T16:18:18.940Z,1.8
2019-01-31T16:20:18.555Z,1.8
2019-01-31T16:22:19.161Z,2.3
2019-01-31T16:24:18.753Z,2
2019-01-31T16:26:18.883Z,2
2019-01-31T16:28:18.493Z,2.7
2019-01-31T16:30:19.119Z,2.2
2019-01-31T16:32:18.738Z,3.6
2019-01-31T16:34:19.345Z,2.2
2019-01-31T16:36:18.519Z,3.6
2019-01-31T16:38:19.107Z,3.1
2019-01-31T16:40:19.108Z,3.6
2019-01-31T16:42:18.686Z,4.2
2019-01-31T16:44:19.268Z,4.4
2019-01-31T16:46:18.860Z,4.5
2019-01-31T16:48:18.467Z,4.2
2019-01-31T16:50:19.098Z,3.2
2019-01-31T16:52:18.698Z,4
2019-01-31T16:54:19.289Z,4.1
2019-01-31T16:56:18.411Z,4.2
2019-01-31T16:58:19.025Z,4.8
2019-01-31T17:00:18.638Z,5.7
2019-01-31T17:02:19.219Z,4.2
2019-01-31T17:04:18.826Z,4.8
2019-01-31T17:06:18.477Z,5.1
2019-01-31T17:08:19.050Z,4.7
2019-01-31T17:10:19.083Z,5.9
2019-01-31T17:12:18.656Z,4.9
2019-01-31T17:14:19.241Z,3.8
2019-01-31T17:16:19.369Z,4.7
2019-01-31T17:18:19.012Z,4.8
2019-01-31T17:20:18.618Z,4.9
2019-01-31T17:22:19.213Z,5.6
2019-01-31T17:24:18.795Z,4.7
2019-01-31T17:26:18.426Z,5
2019-01-31T17:28:19.068Z,4.4
2019-01-31T17:30:18.675Z,5.1
2019-01-31T17:32:19.241Z,4.6
2019-01-31T17:34:18.836Z,4.9
2019-01-31T17:36:18.964Z,4.6
2019-01-31T17:38:18.532Z,5
2019-01-31T17:40:18.534Z,5.1
2019-01-31T17:42:19.109Z,4.8
2019-01-31T17:44:18.677Z,4.8
2019-01-31T17:46:18.814Z,4.9
2019-01-31T17:48:18.387Z,5.5
2019-01-31T17:50:19.004Z,4
2019-01-31T17:52:18.609Z,5.2
2019-01-31T17:54:19.249Z,4.7
2019-01-31T17:56:18.975Z,5.3
2019-01-31T17:58:18.547Z,4.7
2019-01-31T18:00:19.154Z,5.2
2019-01-31T18:02:18.741Z,4.5
2019-01-31T18:04:19.319Z,4.6
2019-01-31T18:06:18.937Z,5.9
2019-01-31T18:08:18.603Z,5.8
2019-01-31T18:10:18.620Z,6.3
2019-01-31T18:12:19.249Z,9.1
2019-01-31T18:14:18.824Z,8.9
2019-01-31T18:16:18.944Z,11.8
2019-01-31T18:18:18.574Z,11.1
2019-01-31T18:20:19.199Z,9.5
2019-01-31T18:22:18.891Z,6.9
2019-01-31T18:24:18.485Z,6
2019-01-31T18:26:18.635Z,6
2019-01-31T18:28:19.222Z,7
2019-01-31T18:30:18.850Z,5.1
2019-01-31T18:32:18.436Z,6.3
2019-01-31T18:34:19.013Z,5.7
2019-01-31T18:36:19.151Z,6.2
2019-01-31T18:38:18.728Z,5.7
2019-01-31T18:40:18.775Z,5.8
2019-01-31T18:42:19.368Z,5.7
2019-01-31T18:44:18.982Z,5.6
2019-01-31T18:46:19.099Z,4.9
2019-01-31T18:48:18.667Z,4.7
2019-01-31T18:50:19.267Z,5.2
2019-01-31T18:52:18.829Z,6.8
2019-01-31T18:54:18.409Z,6
2019-01-31T18:56:18.527Z,5.4
2019-01-31T18:58:19.102Z,7.2
2019-01-31T19:00:18.708Z,6.8
2019-01-31T19:02:20.506Z,4.6
2019-01-31T19:04:19.208Z,6.1
2019-01-31T19:06:18.919Z,6.2
2019-01-31T19:08:18.509Z,5.8
2019-01-31T19:10:18.522Z,5.2
2019-01-31T19:12:19.120Z,6.4
2019-01-31T19:14:18.706Z,6.6
2019-01-31T19:16:18.833Z,5.9
2019-01-31T19:18:18.481Z,6.4
2019-01-31T19:20:19.097Z,7
2019-01-31T19:22:18.687Z,6.1
2019-01-31T19:24:19.255Z,7.3
2019-01-31T19:26:18.896Z,7.5
2019-01-31T19:28:18.512Z,6.9
2019-01-31T19:30:19.153Z,8.1
2019-01-31T19:32:18.731Z,8.4
2019-01-31T19:34:19.332Z,7.1
2019-01-31T19:36:18.991Z,8.6
2019-01-31T19:38:18.577Z,7.2
2019-01-31T19:40:18.591Z,7.4
2019-01-31T19:42:19.169Z,7.6
2019-01-31T19:44:18.746Z,6.7
2019-01-31T19:46:18.410Z,7.8
2019-01-31T19:48:18.977Z,7.8
2019-01-31T19:50:18.602Z,8.8
2019-01-31T19:52:19.178Z,8.6
2019-01-31T19:54:18.760Z,9.3
2019-01-31T19:56:19.019Z,9.6
2019-01-31T19:58:18.595Z,7
2019-01-31T20:00:19.197Z,10.3
2019-01-31T20:02:18.795Z,9.3
2019-01-31T20:04:19.374Z,9.6
2019-01-31T20:06:19.030Z,9.7
2019-01-31T20:08:18.611Z,10
2019-01-31T20:10:18.634Z,10.5
2019-01-31T20:12:19.201Z,12
2019-01-31T20:14:18.790Z,10
2019-01-31T20:16:28.380Z,10.5
2019-01-31T20:18:19.075Z,10
2019-01-31T20:20:18.677Z,9
2019-01-31T20:22:19.249Z,10.8
2019-01-31T20:24:18.827Z,10.5
2019-01-31T20:26:18.482Z,10
2019-01-31T20:28:19.086Z,8.7
2019-01-31T20:30:18.693Z,10.6
2019-01-31T20:32:19.292Z,10.2
2019-01-31T20:34:18.870Z,10.6
2019-01-31T20:36:18.645Z,10.9
2019-01-31T20:38:19.212Z,11.7
2019-01-31T20:40:19.216Z,11.1
2019-01-31T20:42:18.804Z,11.8
2019-01-31T20:44:19.371Z,11.9
2019-01-31T20:46:18.471Z,10.3
2019-01-31T20:48:19.059Z,12.1
2019-01-31T20:50:18.642Z,11.9
2019-01-31T20:52:19.206Z,12.6
2019-01-31T20:54:18.807Z,13.2
2019-01-31T20:56:18.516Z,11.7
2019-01-31T20:58:19.093Z,14.5
2019-01-31T21:00:18.712Z,13.6
2019-01-31T21:02:21.512Z,13.9
2019-01-31T21:04:18.493Z,12.6
2019-01-31T21:06:18.627Z,13.7
2019-01-31T21:08:19.203Z,14.2
2019-01-31T21:10:19.251Z,13.3
2019-01-31T21:12:18.829Z,13.9
2019-01-31T21:14:18.419Z,13.3
2019-01-31T21:16:19.088Z,14.2
2019-01-31T21:18:18.728Z,13.8
2019-01-31T21:20:19.328Z,12.5
2019-01-31T21:22:18.923Z,13.2
2019-01-31T21:24:18.493Z,14
2019-01-31T21:26:19.143Z,15.6
2019-01-31T21:28:18.737Z,16.5
2019-01-31T21:30:19.340Z,14.5
2019-01-31T21:32:18.919Z,14.4
2019-01-31T21:34:18.504Z,15.4
2019-01-31T21:36:18.712Z,13.8
2019-01-31T21:38:19.296Z,14.3
2019-01-31T21:40:19.389Z,16.8
2019-01-31T21:42:19.008Z,14
2019-01-31T21:44:18.579Z,14
2019-01-31T21:46:18.553Z,16.1
2019-01-31T21:48:19.122Z,17.2
2019-01-31T21:50:18.738Z,14.6
2019-01-31T21:52:19.316Z,13.7
2019-01-31T21:54:18.890Z,17
2019-01-31T21:56:19.036Z,14.9
2019-01-31T21:58:18.613Z,16.8
2019-01-31T22:00:19.222Z,16.8
2019-01-31T22:02:18.919Z,16.3
2019-01-31T22:04:18.492Z,17.9
2019-01-31T22:06:22.385Z,18
2019-01-31T22:08:18.538Z,15.2
2019-01-31T22:10:18.697Z,16.4
2019-01-31T22:12:19.285Z,17.9
2019-01-31T22:14:18.884Z,15.6
2019-01-31T22:16:18.707Z,15.5
2019-01-31T22:18:19.338Z,14.9
2019-01-31T22:20:18.947Z,16
2019-01-31T22:22:18.521Z,16.1
2019-01-31T22:24:19.108Z,16
2019-01-31T22:26:19.254Z,16.8
2019-01-31T22:28:18.831Z,17.4
2019-01-31T22:30:18.438Z,16.4
2019-01-31T22:32:19.030Z,15.1
2019-01-31T22:34:18.603Z,18.5
2019-01-31T22:36:18.837Z,16.3
2019-01-31T22:38:18.429Z,18
2019-01-31T22:40:18.419Z,17
2019-01-31T22:42:18.987Z,19.1
2019-01-31T22:44:18.577Z,18.2
2019-01-31T22:46:21.166Z,16.3
2019-01-31T22:48:19.025Z,19.3
2019-01-31T22:50:18.634Z,17.5
2019-01-31T22:52:19.212Z,20
2019-01-31T22:54:18.774Z,16
2019-01-31T22:56:18.410Z,16.9
2019-01-31T22:58:18.978Z,20.1
2019-01-31T23:00:18.579Z,17
2019-01-31T23:02:19.149Z,17.7
2019-01-31T23:04:18.716Z,19.5
2019-01-31T23:06:19.369Z,18.3
2019-01-31T23:08:18.930Z,18.3
2019-01-31T23:10:18.957Z,18.2
2019-01-31T23:12:18.548Z,16.8
2019-01-31T23:14:19.116Z,18.7
2019-01-31T23:16:19.222Z,18.9
2019-01-31T23:18:18.882Z,19.4
2019-01-31T23:20:18.555Z,18.6
2019-01-31T23:22:19.130Z,17.4
2019-01-31T23:24:18.793Z,17.9
2019-01-31T23:26:18.465Z,16.4
2019-01-31T23:28:19.042Z,17.4
2019-01-31T23:30:18.642Z,17
2019-01-31T23:32:19.226Z,16
2019-01-31T23:34:18.811Z,16.2
2019-01-31T23:36:18.480Z,18.1
2019-01-31T23:38:19.047Z,18.1
2019-01-31T23:40:19.089Z,18.2
2019-01-31T23:42:18.436Z,16.4
2019-01-31T23:44:19.031Z,18
2019-01-31T23:46:19.177Z,17.3
2019-01-31T23:48:18.761Z,19.5
2019-01-31T23:50:19.363Z,18.5
2019-01-31T23:52:18.942Z,18.9
2019-01-31T23:54:18.519Z,17.3
2019-01-31T23:56:19.168Z,15.8
2019-01-31T23:58:18.758Z,17.8
